Time;durP1;ratioP1;P1;durP2;ratioP2;P2;SDS_P1;SDS_P2;PMS_P1;PMS_P2;Temp;Humidity;BMP_temperature;BMP_pressure;BME280_temperature;BME280_humidity;BME280_pressure;Samples;Min_cycle;Max_cycle;Signal;HPM_P1;HPM_P2
2024/04/02 00:02:43;;;;;;;37.50;35.20;;;;;;;13.94;100.00;100144.28;5108693;28;20560;-77
2024/04/02 00:05:10;;;;;;;38.60;36.03;;;;;;;14.17;100.00;100145.19;5105796;28;20040;-78
2024/04/02 00:07:43;;;;;;;34.95;32.45;;;;;;;14.06;100.00;100149.53;5099691;28;20442;-77
2024/04/02 00:10:13;;;;;;;38.75;36.05;;;;;;;14.88;100.00;100153.44;5092562;28;20058;-78
2024/04/02 00:12:39;;;;;;;42.92;40.22;;;;;;;14.90;100.00;100145.97;5107472;28;20116;-78
2024/04/02 00:15:19;;;;;;;31.88;29.58;;;;;;;15.30;100.00;100139.50;5112475;28;20463;-78
2024/04/02 00:17:45;;;;;;;35.17;32.67;;;;;;;15.24;100.00;100148.53;5106843;28;20048;-77
2024/04/02 00:20:12;;;;;;;36.20;33.80;;;;;;;14.86;100.00;100137.66;5097505;28;20052;-78
2024/04/02 00:22:48;;;;;;;39.30;36.22;;;;;;;14.52;100.00;100149.47;5101430;28;20135;-74
2024/04/02 00:25:16;;;;;;;37.90;34.55;;;;;;;14.81;100.00;100140.25;5107948;28;20134;-78
2024/04/02 00:27:42;;;;;;;29.88;27.98;;;;;;;14.52;100.00;100138.78;5105172;27;20051;-78
2024/04/02 00:30:09;;;;;;;33.72;31.67;;;;;;;15.40;100.00;100117.38;5092513;28;20056;-74
2024/04/02 00:32:44;;;;;;;34.53;32.42;;;;;;;14.52;100.00;100134.25;5103559;28;20051;-73
2024/04/02 00:35:12;;;;;;;33.78;31.77;;;;;;;14.47;100.00;100136.03;5106951;28;20044;-74
2024/04/02 00:37:38;;;;;;;33.40;31.30;;;;;;;14.44;100.00;100124.75;5093665;28;20044;-74
2024/04/02 00:40:27;;;;;;;36.05;33.80;;;;;;;15.14;100.00;100125.16;5096493;27;20047;-74
2024/04/02 00:42:53;;;;;;;39.55;37.15;;;;;;;15.89;100.00;100128.06;5107082;28;20051;-73
2024/04/02 00:45:20;;;;;;;45.58;42.55;;;;;;;15.64;100.00;100116.00;5090299;28;20048;-73
2024/04/02 00:47:48;;;;;;;39.38;37.08;;;;;;;15.37;100.00;100126.75;5101567;28;20051;-74
2024/04/02 00:50:15;;;;;;;35.45;33.25;;;;;;;15.67;100.00;100128.91;5095717;28;20052;-74
2024/04/02 00:52:47;;;;;;;43.63;41.13;;;;;;;15.61;100.00;100124.56;5100815;28;20570;-78
2024/04/02 00:55:15;;;;;;;40.22;37.83;;;;;;;15.79;100.00;100124.25;5096836;28;20059;-78
2024/04/02 00:57:42;;;;;;;45.63;42.92;;;;;;;15.65;100.00;100125.69;5095986;28;20489;-78
2024/04/02 01:00:10;;;;;;;40.35;37.85;;;;;;;15.56;100.00;100116.50;5098950;28;20079;-78
2024/04/02 01:02:36;;;;;;;36.20;33.67;;;;;;;15.25;100.00;100123.38;5090838;28;20105;-77
2024/04/02 01:05:05;;;;;;;33.53;31.17;;;;;;;14.89;100.00;100120.31;5097978;28;20165;-78
2024/04/02 01:07:39;;;;;;;31.92;29.50;;;;;;;14.95;100.00;100121.16;5099926;28;20051;-78
2024/04/02 01:10:13;;;;;;;35.72;32.58;;;;;;;14.66;100.00;100111.47;5109412;28;20559;-78
2024/04/02 01:12:39;;;;;;;31.23;29.02;;;;;;;14.86;100.00;100112.78;5109235;28;20104;-78
2024/04/02 01:15:06;;;;;;;37.00;34.30;;;;;;;15.61;100.00;100113.03;5096841;28;20590;-78
2024/04/02 01:18:01;;;;;;;40.88;38.20;;;;;;;15.25;100.00;100107.31;5091733;28;20055;-78
2024/04/02 01:20:29;;;;;;;42.63;39.42;;;;;;;15.58;100.00;100100.97;5101341;28;20503;-78
2024/04/02 01:22:56;;;;;;;46.08;43.38;;;;;;;15.13;100.00;100099.47;5102447;28;20043;-78
2024/04/02 01:25:25;;;;;;;38.75;36.13;;;;;;;14.85;100.00;100109.28;5103864;28;20043;-77
2024/04/02 01:27:53;;;;;;;37.42;34.80;;;;;;;15.19;100.00;100105.66;5104716;28;20708;-77
2024/04/02 01:30:20;;;;;;;42.17;39.15;;;;;;;14.97;100.00;100116.38;5103651;28;20055;-77
2024/04/02 01:32:50;;;;;;;46.15;43.35;;;;;;;15.29;100.00;100103.91;5096300;28;20052;-78
2024/04/02 01:35:18;;;;;;;39.95;37.35;;;;;;;14.94;100.00;100100.84;5107798;28;20113;-78
2024/04/02 01:37:52;;;;;;;48.22;45.42;;;;;;;15.03;100.00;100100.13;5097857;28;20043;-74
2024/04/02 01:40:20;;;;;;;41.28;38.58;;;;;;;14.36;100.00;100103.00;5091436;28;20067;-74
2024/04/02 01:42:55;;;;;;;44.38;41.83;;;;;;;14.60;100.00;100100.94;5098277;28;20052;-74
2024/04/02 01:45:21;;;;;;;45.60;43.00;;;;;;;14.39;100.00;100097.97;5095427;28;20108;-73
2024/04/02 01:47:48;;;;;;;44.78;42.28;;;;;;;15.42;100.00;100094.66;5101624;28;20052;-73
2024/04/02 01:50:24;;;;;;;42.50;40.00;;;;;;;15.48;100.00;100090.19;5096906;28;20126;-73
2024/04/02 01:52:51;;;;;;;40.45;37.95;;;;;;;15.00;100.00;100091.81;5091623;28;20047;-74
2024/04/02 01:55:22;;;;;;;46.45;43.10;;;;;;;15.19;100.00;100084.25;5090463;28;20133;-73
2024/04/02 01:57:49;;;;;;;44.13;41.30;;;;;;;14.32;100.00;100091.19;5091711;28;20050;-73
2024/04/02 02:00:18;;;;;;;45.10;41.22;;;;;;;14.75;100.00;100086.97;5090913;28;20044;-73
2024/04/02 02:02:47;;;;;;;49.58;46.75;;;;;;;14.47;100.00;100080.72;5102157;28;20048;-73
2024/04/02 02:05:13;;;;;;;52.28;49.53;;;;;;;13.93;100.00;100091.94;5102844;28;20051;-73
2024/04/02 02:07:40;;;;;;;51.97;49.30;;;;;;;14.48;100.00;100086.88;5101048;28;20771;-78
2024/04/02 02:10:26;;;;;;;50.55;48.08;;;;;;;14.75;100.00;100092.31;5101516;28;20051;-77
2024/04/02 02:12:53;;;;;;;56.65;53.85;;;;;;;14.40;100.00;100090.75;5069755;28;20055;-77
2024/04/02 02:15:33;;;;;;;51.53;48.70;;;;;;;14.03;100.00;100083.28;5088197;28;20048;-77
2024/04/02 02:18:00;;;;;;;50.50;47.63;;;;;;;13.96;100.00;100088.00;5095418;28;20568;-78
2024/04/02 02:20:26;;;;;;;56.13;53.40;;;;;;;13.61;100.00;100086.34;5095133;28;20060;-78
2024/04/02 02:22:53;;;;;;;56.05;52.70;;;;;;;13.19;100.00;100081.31;5089082;28;20109;-78
2024/04/02 02:25:19;;;;;;;53.20;50.38;;;;;;;13.27;100.00;100082.81;5096509;28;20052;-78
2024/04/02 02:27:46;;;;;;;45.47;42.88;;;;;;;13.26;100.00;100076.69;5096130;28;20522;-77
2024/04/02 02:30:13;;;;;;;50.03;47.28;;;;;;;14.05;100.00;100072.38;5100170;28;20104;-78
2024/04/02 02:32:42;;;;;;;49.03;46.45;;;;;;;13.39;100.00;100080.91;5105751;28;20047;-78
2024/04/02 02:35:09;;;;;;;51.63;48.55;;;;;;;13.84;100.00;100068.56;5099501;28;20083;-78
2024/04/02 02:37:38;;;;;;;59.22;56.42;;;;;;;12.28;100.00;100070.38;5104895;28;20620;-77
2024/04/02 02:40:07;;;;;;;49.78;47.28;;;;;;;12.37;100.00;100077.00;5098935;28;20040;-74
2024/04/02 02:42:40;;;;;;;48.88;46.47;;;;;;;12.34;100.00;100072.16;5099534;28;20106;-78
2024/04/02 02:45:25;;;;;;;41.72;39.42;;;;;;;12.67;100.00;100048.56;5108213;28;20048;-78
2024/04/02 02:47:54;;;;;;;38.40;35.83;;;;;;;12.24;100.00;100066.59;5088829;28;20142;-78
2024/04/02 02:50:20;;;;;;;38.97;36.85;;;;;;;12.55;100.00;100048.59;5087192;28;20051;-77
2024/04/02 02:52:56;;;;;;;42.38;40.13;;;;;;;12.47;100.00;100056.97;5102423;28;20083;-78
2024/04/02 02:55:22;;;;;;;43.65;39.63;;;;;;;12.41;100.00;100047.25;5091185;28;20105;-78
2024/04/02 02:57:49;;;;;;;49.17;46.58;;;;;;;13.18;100.00;100052.22;5097628;28;20051;-78
2024/04/02 03:00:15;;;;;;;48.40;46.10;;;;;;;12.32;100.00;100047.59;5104519;28;20104;-77
2024/04/02 03:02:42;;;;;;;47.20;44.83;;;;;;;12.48;100.00;100045.25;5105471;28;20143;-78
2024/04/02 03:05:10;;;;;;;47.67;45.28;;;;;;;12.56;100.00;100047.56;5099885;28;20104;-78
2024/04/02 03:07:37;;;;;;;43.00;40.70;;;;;;;12.52;100.00;100052.53;5100017;28;20044;-77
2024/04/02 03:10:04;;;;;;;41.03;38.83;;;;;;;12.45;100.00;100049.19;5094143;28;20044;-77
2024/04/02 03:12:31;;;;;;;53.67;50.70;;;;;;;12.61;100.00;100039.66;5097094;28;20051;-73
2024/04/02 03:14:57;;;;;;;47.53;44.72;;;;;;;12.31;100.00;100039.84;5107142;28;20404;-78
2024/04/02 03:17:25;;;;;;;39.83;37.63;;;;;;;11.86;100.00;100040.41;5104960;28;20047;-78
2024/04/02 03:19:52;;;;;;;45.13;42.08;;;;;;;11.43;100.00;100038.81;5104568;28;20067;-73
2024/04/02 03:22:21;;;;;;;38.38;36.47;;;;;;;11.40;100.00;100029.44;5101932;28;20058;-78
2024/04/02 03:24:47;;;;;;;42.92;39.90;;;;;;;11.63;100.00;100028.69;5096443;28;20131;-78
2024/04/02 03:27:14;;;;;;;35.45;33.55;;;;;;;11.62;100.00;100026.28;5101359;28;20462;-73
2024/04/02 03:29:40;;;;;;;35.63;33.72;;;;;;;11.50;100.00;100012.13;5096574;28;20047;-78
2024/04/02 03:32:07;;;;;;;34.83;32.92;;;;;;;11.11;100.00;100004.53;5094035;28;20044;-73
2024/04/02 03:34:33;;;;;;;37.80;36.00;;;;;;;10.84;100.00;99998.78;5097649;28;20043;-73
2024/04/02 03:37:01;;;;;;;38.72;36.60;;;;;;;10.89;100.00;99988.31;5095049;28;20052;-74
2024/04/02 03:39:43;;;;;;;38.90;36.58;;;;;;;11.06;100.00;99990.31;5103897;28;20139;-74
2024/04/02 03:42:10;;;;;;;30.20;28.52;;;;;;;11.54;100.00;99990.19;5109113;28;20052;-74
2024/04/02 03:44:37;;;;;;;30.98;29.27;;;;;;;11.76;100.00;99981.63;5100845;28;20101;-73
2024/04/02 03:47:03;;;;;;;33.97;32.08;;;;;;;12.85;100.00;99971.13;5102144;28;20481;-73
2024/04/02 03:49:30;;;;;;;69.15;63.80;;;;;;;12.77;100.00;99976.84;5100592;28;20407;-74
2024/04/02 03:52:06;;;;;;;75.93;68.38;;;;;;;12.67;100.00;99966.78;5107417;28;20110;-73
2024/04/02 03:54:35;;;;;;;95.15;75.57;;;;;;;12.75;100.00;99970.94;5098853;28;20140;-73
2024/04/02 03:57:03;;;;;;;100.80;85.45;;;;;;;12.78;100.00;99970.47;5097339;28;20059;-77
2024/04/02 03:59:30;;;;;;;29.75;27.92;;;;;;;12.80;100.00;99963.84;5097945;28;20044;-77
2024/04/02 04:01:56;;;;;;;30.60;28.10;;;;;;;13.07;100.00;99963.22;5097630;28;20113;-78
2024/04/02 04:04:23;;;;;;;28.80;26.90;;;;;;;12.95;100.00;99959.81;5092235;28;20051;-78
2024/04/02 04:06:51;;;;;;;29.60;27.70;;;;;;;12.92;100.00;99966.47;5098225;28;20059;-78
2024/04/02 04:09:35;;;;;;;61.53;56.28;;;;;;;12.96;100.00;99962.25;5097961;28;20526;-78
2024/04/02 04:12:03;;;;;;;77.45;70.50;;;;;;;13.14;100.00;99971.91;5098834;28;20085;-78
2024/04/02 04:14:37;;;;;;;33.25;31.05;;;;;;;13.44;100.00;99965.50;5099651;28;20426;-78
2024/04/02 04:17:03;;;;;;;32.63;30.52;;;;;;;13.40;100.00;99959.81;5103933;28;20055;-78
2024/04/02 04:19:30;;;;;;;31.92;29.48;;;;;;;13.43;100.00;99959.31;5100875;28;20130;-78
2024/04/02 04:21:56;;;;;;;32.47;29.45;;;;;;;13.58;100.00;99958.75;5100778;28;20043;-78
2024/04/02 04:24:24;;;;;;;31.80;29.80;;;;;;;13.91;100.00;99968.56;5098191;28;20047;-78
2024/04/02 04:27:17;;;;;;;32.25;30.08;;;;;;;14.18;100.00;99955.31;5097577;28;20083;-78
2024/04/02 04:29:46;;;;;;;29.77;27.98;;;;;;;14.32;100.00;99946.94;5103609;28;20058;-78
2024/04/02 04:32:12;;;;;;;27.35;25.65;;;;;;;14.18;100.00;99963.34;5109753;28;20052;-78
2024/04/02 04:35:06;;;;;;;29.27;27.17;;;;;;;14.22;100.00;99963.66;5097367;28;20048;-78
2024/04/02 04:37:33;;;;;;;27.25;25.30;;;;;;;14.30;100.00;99949.84;5102171;28;20048;-78
2024/04/02 04:40:12;;;;;;;30.58;28.27;;;;;;;14.18;100.00;99960.66;5101049;28;20047;-78
2024/04/02 04:42:39;;;;;;;28.30;26.30;;;;;;;14.75;100.00;99956.00;5071275;28;20802;-73
2024/04/02 04:45:12;;;;;;;52.40;46.70;;;;;;;14.97;100.00;99963.97;5090784;28;20040;-73
2024/04/02 04:47:41;;;;;;;26.85;24.92;;;;;;;13.88;100.00;99958.38;5091285;28;20117;-73
2024/04/02 04:50:08;;;;;;;29.30;27.40;;;;;;;13.94;100.00;99959.28;5111220;28;20058;-73
2024/04/02 04:52:34;;;;;;;29.98;27.70;;;;;;;15.26;100.00;99951.94;5104567;28;20499;-73
2024/04/02 04:55:01;;;;;;;29.90;27.58;;;;;;;15.84;100.00;99965.47;5109772;28;20100;-74
2024/04/02 04:57:28;;;;;;;31.80;29.15;;;;;;;15.94;100.00;99967.41;5093227;28;20073;-74
2024/04/02 04:59:57;;;;;;;30.52;28.42;;;;;;;16.78;100.00;99960.25;5099394;28;20047;-74
2024/04/02 05:02:24;;;;;;;29.10;27.05;;;;;;;16.96;100.00;99953.59;5095531;28;20051;-74
2024/04/02 05:05:06;;;;;;;32.85;30.23;;;;;;;17.72;100.00;99963.50;5091822;28;20044;-74
2024/04/02 05:07:54;;;;;;;;;;;;;;;18.49;100.00;99950.66;5099769;28;20044;-74
2024/04/02 05:10:24;;;;;;;29.05;26.95;;;;;;;18.94;93.20;99955.00;5102634;28;20002;-74
2024/04/02 05:12:50;;;;;;;32.05;28.60;;;;;;;19.14;86.43;99959.41;5110962;28;20047;-74
2024/04/02 05:15:18;;;;;;;32.55;30.08;;;;;;;19.49;78.65;99962.09;5095376;28;20051;-78
2024/04/02 05:17:44;;;;;;;32.60;30.20;;;;;;;19.56;78.54;99955.28;5095121;28;20052;-78
2024/04/02 05:20:11;;;;;;;33.92;31.13;;;;;;;19.59;83.02;99952.00;5090743;28;20051;-78
2024/04/02 05:22:37;;;;;;;31.70;29.10;;;;;;;20.04;73.67;99951.84;5099056;28;20052;-78
2024/04/02 05:25:05;;;;;;;31.10;28.60;;;;;;;20.26;78.72;99956.72;5106607;28;20055;-77
2024/04/02 05:27:31;;;;;;;36.35;33.33;;;;;;;20.40;77.63;99956.81;5106100;28;20055;-77
2024/04/02 05:29:58;;;;;;;34.13;31.52;;;;;;;20.64;74.78;99948.72;5099201;28;20052;-78
2024/04/02 05:32:25;;;;;;;32.50;29.92;;;;;;;20.92;70.00;99941.53;5107065;28;21342;-78
2024/04/02 05:34:53;;;;;;;32.55;30.15;;;;;;;20.89;81.90;99944.84;5107399;28;20160;-75
2024/04/02 05:37:21;;;;;;;31.73;29.42;;;;;;;21.30;65.41;99955.75;5094901;28;20097;-73
2024/04/02 05:39:49;;;;;;;37.50;34.70;;;;;;;21.45;64.54;99960.97;5105198;28;20055;-74
2024/04/02 05:42:22;;;;;;;35.15;32.58;;;;;;;21.57;63.01;99960.47;5105404;28;20048;-74
2024/04/02 05:45:07;;;;;;;37.08;34.42;;;;;;;21.83;60.84;99954.63;5097452;28;20048;-74
2024/04/02 05:47:35;;;;;;;38.22;35.33;;;;;;;22.03;60.11;99970.44;5096823;28;20885;-78
2024/04/02 05:50:02;;;;;;;39.63;36.80;;;;;;;21.82;64.64;99970.03;5096183;28;20083;-78
2024/04/02 05:52:36;;;;;;;37.05;34.38;;;;;;;22.18;56.08;99972.88;5107651;28;20047;-78
2024/04/02 05:55:04;;;;;;;38.05;35.28;;;;;;;22.18;56.06;99970.19;5101992;28;20139;-78
2024/04/02 05:57:30;;;;;;;40.22;37.05;;;;;;;22.15;56.72;99969.97;5104159;28;20043;-78
2024/04/02 05:59:57;;;;;;;39.35;36.25;;;;;;;22.15;58.80;99976.16;5098198;28;20441;-74
2024/04/02 06:02:29;;;;;;;40.75;37.70;;;;;;;22.24;58.42;99989.00;5100350;28;20047;-74
2024/04/02 06:04:58;;;;;;;39.55;36.75;;;;;;;22.27;58.92;100002.72;5094421;28;20404;-74
2024/04/02 06:07:24;;;;;;;41.97;38.92;;;;;;;22.28;59.53;99998.91;5104899;28;20416;-74
2024/04/02 06:09:51;;;;;;;39.03;36.22;;;;;;;22.44;56.49;99993.19;5102987;28;20047;-74
2024/04/02 06:12:22;;;;;;;48.40;40.67;;;;;;;22.45;62.16;99992.09;5110094;28;20094;-74
2024/04/02 06:14:49;;;;;;;37.80;35.08;;;;;;;22.31;59.19;99995.59;5095551;28;20491;-74
2024/04/02 06:17:15;;;;;;;41.75;38.88;;;;;;;22.52;57.07;99997.91;5095903;28;20105;-79
2024/04/02 06:19:46;;;;;;;39.47;36.78;;;;;;;22.56;57.92;100007.81;5097659;28;20611;-74
2024/04/02 06:22:13;;;;;;;40.20;37.25;;;;;;;22.32;64.36;100009.94;5098301;28;20066;-74
2024/04/02 06:24:43;;;;;;;40.67;37.78;;;;;;;23.20;50.86;100007.75;5099524;28;20070;-74
2024/04/02 06:27:10;;;;;;;46.03;42.83;;;;;;;22.74;55.35;100011.47;5089195;28;20048;-74
2024/04/02 06:29:37;;;;;;;41.22;38.15;;;;;;;23.22;47.42;100015.59;5095035;28;20544;-74
2024/04/02 06:32:03;;;;;;;39.55;36.55;;;;;;;23.09;50.17;100022.66;5105845;28;20419;-74
2024/04/02 06:34:30;;;;;;;39.53;36.58;;;;;;;23.25;48.79;100028.53;5100819;28;20055;-74
2024/04/02 06:36:59;;;;;;;39.55;36.58;;;;;;;23.31;49.51;100024.59;5107390;28;20051;-73
2024/04/02 06:39:27;;;;;;;41.88;38.17;;;;;;;23.28;49.84;100036.81;5100741;28;20816;-78
2024/04/02 06:42:01;;;;;;;39.95;37.15;;;;;;;23.78;43.89;100038.59;5108387;28;20047;-78
2024/04/02 06:44:28;;;;;;;40.85;37.85;;;;;;;23.68;43.94;100045.06;5090918;28;20052;-78
2024/04/02 06:47:16;;;;;;;41.50;38.50;;;;;;;23.64;46.76;100049.50;5081523;28;20122;-78
2024/04/02 06:49:43;;;;;;;40.75;37.65;;;;;;;23.71;44.48;100057.25;5098659;28;20047;-78
2024/04/02 06:52:09;;;;;;;40.28;37.30;;;;;;;23.88;42.45;100061.97;5099291;28;20101;-78
2024/04/02 06:54:38;;;;;;;44.15;39.95;;;;;;;22.98;60.82;100124.97;5106073;28;20047;-78
2024/04/02 06:57:08;;;;;;;42.47;39.38;;;;;;;21.02;100.00;100168.94;5108064;28;20130;-78
2024/04/02 06:59:35;;;;;;;40.95;38.15;;;;;;;19.92;100.00;100185.91;5109086;28;20098;-78
2024/04/02 07:02:01;;;;;;;41.65;38.15;;;;;;;19.97;100.00;100191.25;5108476;28;20052;-74
2024/04/02 07:04:31;;;;;;;38.75;35.95;;;;;;;20.16;100.00;100200.28;5112876;28;20469;-74
2024/04/02 07:06:58;;;;;;;38.45;35.75;;;;;;;19.55;100.00;100214.94;5099603;28;20052;-74
2024/04/02 07:09:25;;;;;;;38.05;35.33;;;;;;;19.35;100.00;100213.13;5096812;28;20040;-74
2024/04/02 07:11:53;;;;;;;42.22;38.72;;;;;;;19.55;100.00;100217.63;5093140;28;20109;-74
2024/04/02 07:14:20;;;;;;;38.40;35.80;;;;;;;19.16;100.00;100220.22;5099313;28;20132;-74
2024/04/02 07:16:58;;;;;;;38.65;36.05;;;;;;;19.98;100.00;100220.63;5102612;28;20423;-74
2024/04/02 07:19:26;;;;;;;36.05;33.45;;;;;;;20.06;100.00;100220.03;5096240;28;20056;-74
2024/04/02 07:21:53;;;;;;;37.60;34.80;;;;;;;19.92;100.00;100224.44;5099643;28;20101;-74
2024/04/02 07:24:19;;;;;;;38.80;34.72;;;;;;;20.10;100.00;100229.16;5109238;28;20043;-74
2024/04/02 07:26:47;;;;;;;35.30;32.60;;;;;;;20.00;100.00;100231.09;5105816;28;20063;-75
2024/04/02 07:29:14;;;;;;;37.90;34.80;;;;;;;19.91;100.00;100239.00;5092999;28;20052;-74
2024/04/02 07:31:44;;;;;;;37.30;34.40;;;;;;;19.80;100.00;100232.06;5099290;28;20048;-74
2024/04/02 07:34:11;;;;;;;35.90;33.20;;;;;;;19.54;100.00;100252.91;5104535;28;20060;-74
2024/04/02 07:36:38;;;;;;;37.35;34.55;;;;;;;19.70;100.00;100262.56;5110247;28;20047;-73
2024/04/02 07:39:05;;;;;;;37.15;34.42;;;;;;;19.37;100.00;100264.03;5104319;28;20044;-74
2024/04/02 07:41:32;;;;;;;36.70;33.58;;;;;;;19.86;100.00;100284.84;5102036;28;20083;-74
2024/04/02 07:43:58;;;;;;;34.30;31.60;;;;;;;19.72;100.00;100295.41;5107434;28;20047;-74
2024/04/02 07:46:29;;;;;;;32.58;30.08;;;;;;;19.72;100.00;100300.00;5093299;27;20457;-74
2024/04/02 07:48:55;;;;;;;35.05;32.35;;;;;;;19.64;100.00;100299.50;5108628;28;20156;-74
2024/04/02 07:51:22;;;;;;;36.58;33.00;;;;;;;19.58;100.00;100303.25;5109192;28;20073;-74
2024/04/02 07:53:48;;;;;;;56.83;51.08;;;;;;;19.64;100.00;100309.44;5108978;28;20055;-78
2024/04/02 07:56:19;;;;;;;52.28;47.25;;;;;;;19.53;100.00;100313.25;5103478;28;20047;-78
2024/04/02 07:58:45;;;;;;;59.47;53.30;;;;;;;19.58;100.00;100319.41;5101785;28;20514;-74
2024/04/02 08:01:12;;;;;;;58.95;53.05;;;;;;;19.70;100.00;100312.91;5102498;28;20052;-75
2024/04/02 08:03:40;;;;;;;52.40;47.30;;;;;;;19.68;100.00;100311.31;5075302;28;20435;-74
2024/04/02 08:06:07;;;;;;;54.35;48.90;;;;;;;19.71;100.00;100318.03;5100292;28;20044;-74
2024/04/02 08:08:34;;;;;;;59.28;53.70;;;;;;;20.03;100.00;100328.41;5096069;28;20051;-73
2024/04/02 08:11:01;;;;;;;61.85;55.85;;;;;;;20.02;100.00;100312.50;5098021;28;20566;-74
2024/04/02 08:13:27;;;;;;;56.80;51.38;;;;;;;20.30;100.00;100309.09;5095199;28;20508;-74
2024/04/02 08:15:54;;;;;;;65.30;58.80;;;;;;;19.62;100.00;100312.38;5100213;28;20044;-74
2024/04/02 08:18:23;;;;;;;73.65;66.45;;;;;;;19.98;100.00;100300.69;5092168;28;20097;-74
2024/04/02 08:20:57;;;;;;;73.63;66.32;;;;;;;19.82;100.00;100292.69;5072679;28;20127;-78
2024/04/02 08:23:23;;;;;;;76.72;70.07;;;;;;;19.37;100.00;100304.41;5102520;28;20804;-78
2024/04/02 08:25:50;;;;;;;79.43;72.43;;;;;;;20.42;100.00;100305.22;5092097;28;20044;-78
2024/04/02 08:28:17;;;;;;;49.38;44.25;;;;;;;21.12;100.00;100311.13;5095322;28;20103;-77
2024/04/02 08:30:45;;;;;;;74.15;67.40;;;;;;;20.49;100.00;100303.84;5101509;28;20122;-77
2024/04/02 08:33:11;;;;;;;80.28;72.97;;;;;;;20.28;100.00;100305.06;5100017;28;20055;-78
2024/04/02 08:35:38;;;;;;;63.22;56.88;;;;;;;20.75;100.00;100303.63;5102209;28;20047;-73
2024/04/02 08:38:05;;;;;;;69.40;63.05;;;;;;;20.16;100.00;100307.31;5094812;28;20105;-73
2024/04/02 08:40:35;;;;;;;74.43;67.25;;;;;;;21.12;100.00;100292.22;5090009;28;20070;-73
2024/04/02 08:43:05;;;;;;;38.75;35.85;;;;;;;20.13;100.00;100306.78;5101367;28;20048;-74
2024/04/02 08:45:40;;;;;;;38.70;36.00;;;;;;;19.97;100.00;100299.03;5109161;28;20047;-78
2024/04/02 08:48:06;;;;;;;39.88;36.85;;;;;;;20.98;100.00;100304.78;5109499;28;20063;-77
2024/04/02 08:50:34;;;;;;;39.50;36.63;;;;;;;20.66;100.00;100311.53;5099246;28;20052;-77
2024/04/02 08:53:01;;;;;;;37.30;34.60;;;;;;;20.49;100.00;100303.84;5094750;28;20061;-77
2024/04/02 08:55:29;;;;;;;35.55;33.05;;;;;;;19.94;100.00;100313.91;5106777;28;20068;-78
2024/04/02 08:58:09;;;;;;;34.85;32.35;;;;;;;20.20;100.00;100306.47;5105726;28;20529;-78
2024/04/02 09:00:46;;;;;;;34.47;31.88;;;;;;;20.17;100.00;100317.78;5106277;28;20052;-78
2024/04/02 09:03:19;;;;;;;36.08;33.38;;;;;;;20.62;100.00;100318.59;5091798;28;20048;-77
2024/04/02 09:05:46;;;;;;;35.85;32.72;;;;;;;20.50;100.00;100321.63;5093677;28;20495;-78
2024/04/02 09:08:20;;;;;;;37.80;34.33;;;;;;;20.50;100.00;100321.63;5092662;28;20184;-77
2024/04/02 09:10:48;;;;;;;38.15;35.30;;;;;;;20.44;100.00;100324.63;5098802;28;20056;-78
2024/04/02 09:13:17;;;;;;;35.00;32.50;;;;;;;20.46;100.00;100314.38;5100479;28;20044;-74
2024/04/02 09:15:44;;;;;;;33.80;31.50;;;;;;;20.62;100.00;100321.28;5091657;28;20058;-74
2024/04/02 09:18:10;;;;;;;31.92;29.52;;;;;;;21.23;100.00;100326.13;5104114;28;20129;-73
2024/04/02 09:20:37;;;;;;;33.85;31.35;;;;;;;20.49;100.00;100314.63;5109630;28;20051;-74
2024/04/02 09:23:04;;;;;;;38.38;35.38;;;;;;;20.67;100.00;100320.47;5097550;28;20055;-74
2024/04/02 09:25:32;;;;;;;34.13;31.52;;;;;;;21.67;100.00;100345.94;5095736;28;20098;-74
2024/04/02 09:28:00;;;;;;;40.33;37.53;;;;;;;21.00;100.00;100353.91;5106272;28;20043;-74
2024/04/02 09:30:28;;;;;;;41.83;38.92;;;;;;;20.82;100.00;100341.91;5094684;28;20056;-73
2024/04/02 09:32:59;;;;;;;38.40;35.70;;;;;;;20.68;100.00;100332.84;5090508;28;20079;-75
2024/04/02 09:35:54;;;;;;;43.88;40.88;;;;;;;21.72;100.00;100337.75;5102580;28;20047;-73
2024/04/02 09:38:22;;;;;;;33.78;31.20;;;;;;;22.01;100.00;100353.06;5099580;28;20048;-74
2024/04/02 09:40:51;;;;;;;38.08;35.17;;;;;;;21.17;100.00;100345.34;5090398;28;20052;-74
2024/04/02 09:43:20;;;;;;;41.90;38.80;;;;;;;21.08;100.00;100344.38;5093729;28;20052;-74
2024/04/02 09:45:48;;;;;;;40.65;37.30;;;;;;;21.30;100.00;100354.69;5099913;28;20040;-78
2024/04/02 09:48:16;;;;;;;37.10;34.40;;;;;;;20.90;100.00;100348.56;5094806;28;20465;-77
2024/04/02 09:50:48;;;;;;;39.00;36.10;;;;;;;20.73;100.00;100336.31;5101217;28;20062;-77
2024/04/02 09:53:15;;;;;;;42.77;38.70;;;;;;;21.07;100.00;100342.78;5108212;28;20476;-74
2024/04/02 09:55:44;;;;;;;35.85;33.15;;;;;;;21.27;100.00;100348.78;5107796;28;20052;-74
2024/04/02 09:58:19;;;;;;;37.95;35.08;;;;;;;21.19;100.00;100337.78;5098183;28;20080;-74
2024/04/02 10:00:51;;;;;;;40.85;37.90;;;;;;;21.07;100.00;100351.66;5082640;28;20168;-74
2024/04/02 10:03:21;;;;;;;37.58;34.88;;;;;;;21.18;100.00;100346.97;5070926;28;20056;-74
2024/04/02 10:05:49;;;;;;;40.08;37.28;;;;;;;21.18;100.00;100339.69;5089992;28;20051;-74
2024/04/02 10:08:16;;;;;;;38.10;35.30;;;;;;;21.44;100.00;100345.63;5090295;28;20048;-74
2024/04/02 10:10:45;;;;;;;38.35;35.55;;;;;;;21.19;100.00;100335.09;5081133;28;20058;-74
2024/04/02 10:13:12;;;;;;;34.35;31.65;;;;;;;21.16;100.00;100335.66;5092033;28;20127;-74
2024/04/02 10:15:52;;;;;;;35.92;33.13;;;;;;;21.23;100.00;100339.63;5100669;28;20081;-78
2024/04/02 10:18:42;;;;;;;33.90;31.30;;;;;;;20.75;100.00;100338.72;5097413;28;20035;-78
2024/04/02 10:21:17;;;;;;;35.50;32.70;;;;;;;20.95;100.00;100335.03;5089871;28;20123;-78
2024/04/02 10:23:44;;;;;;;36.00;33.20;;;;;;;20.54;100.00;100340.75;5105457;28;20044;-77
2024/04/02 10:26:24;;;;;;;38.55;34.80;;;;;;;20.48;100.00;100345.34;5107418;28;20054;-78
2024/04/02 10:28:55;;;;;;;37.25;34.35;;;;;;;20.52;100.00;100343.75;5093237;28;20831;-74
2024/04/02 10:31:34;;;;;;;32.95;30.45;;;;;;;20.41;100.00;100334.09;5104267;28;20052;-74
2024/04/02 10:34:02;;;;;;;34.65;32.15;;;;;;;20.50;100.00;100334.31;5091474;28;20101;-78
2024/04/02 10:36:28;;;;;;;35.35;32.85;;;;;;;20.49;100.00;100316.53;5093902;28;20052;-78
2024/04/02 10:38:56;;;;;;;40.05;37.25;;;;;;;20.75;100.00;100322.53;5089371;28;20048;-78
2024/04/02 10:41:24;;;;;;;38.80;35.63;;;;;;;20.98;100.00;100324.47;5094505;28;20048;-74
2024/04/02 10:43:52;;;;;;;42.85;40.00;;;;;;;21.00;100.00;100310.72;5103611;28;20059;-74
2024/04/02 10:46:18;;;;;;;45.10;42.10;;;;;;;21.82;100.00;100317.91;5093212;28;20051;-74
2024/04/02 10:48:47;;;;;;;34.95;32.45;;;;;;;21.39;100.00;100304.38;5091260;28;20052;-78
2024/04/02 10:51:14;;;;;;;35.35;32.75;;;;;;;21.42;100.00;100312.72;5093670;28;20055;-78
2024/04/02 10:53:41;;;;;;;32.97;30.58;;;;;;;21.53;100.00;100315.28;5104057;28;20043;-78
2024/04/02 10:56:14;;;;;;;50.25;47.05;;;;;;;21.57;100.00;100309.00;5102597;28;20056;-74
2024/04/02 10:58:53;;;;;;;46.38;43.30;;;;;;;21.91;100.00;100319.66;5091939;28;20457;-74
2024/04/02 11:01:19;;;;;;;33.90;31.50;;;;;;;21.67;100.00;100322.41;5088997;28;20105;-74
2024/04/02 11:03:51;;;;;;;33.30;30.90;;;;;;;21.78;100.00;100314.97;5101989;28;20044;-74
2024/04/02 11:06:17;;;;;;;33.27;30.87;;;;;;;21.70;100.00;100318.34;5095218;28;20052;-74
2024/04/02 11:08:48;;;;;;;34.83;32.25;;;;;;;21.80;100.00;100318.19;5099527;28;20044;-74
2024/04/02 11:11:34;;;;;;;35.28;32.67;;;;;;;21.82;100.00;100307.91;5094148;28;20047;-78
2024/04/02 11:14:06;;;;;;;35.95;33.45;;;;;;;21.64;100.00;100314.09;5091107;28;20055;-78
2024/04/02 11:16:33;;;;;;;31.40;29.10;;;;;;;21.68;100.00;100312.41;5098158;28;20105;-78